createdAt,value
2023-01-13T00:00:12.742Z,97.98
2023-01-13T00:02:39.278Z,97.79
2023-01-13T00:05:06.211Z,97.25
2023-01-13T00:07:32.721Z,97.11
2023-01-13T00:09:59.158Z,95.88
2023-01-13T00:12:25.613Z,95.69
2023-01-13T00:14:52.119Z,95.58
2023-01-13T00:17:18.570Z,94.98
2023-01-13T00:19:45.802Z,95.52
2023-01-13T00:22:12.249Z,95.00
2023-01-13T00:24:38.707Z,94.98
2023-01-13T00:27:05.314Z,94.57
2023-01-13T00:29:31.848Z,95.06
2023-01-13T00:31:58.762Z,95.20
2023-01-13T00:34:25.247Z,94.96
2023-01-13T00:36:51.748Z,94.75
2023-01-13T00:39:18.281Z,95.01
2023-01-13T00:42:03.471Z,94.86
2023-01-13T00:44:29.899Z,94.96
2023-01-13T00:46:56.446Z,95.05
2023-01-13T00:49:22.880Z,95.96
2023-01-13T00:51:49.390Z,95.95
2023-01-13T00:54:16.036Z,96.02
2023-01-13T00:56:42.563Z,95.76
2023-01-13T00:59:13.305Z,96.73
2023-01-13T01:01:41.072Z,96.51
2023-01-13T01:04:07.830Z,97.22
2023-01-13T01:06:34.354Z,97.43
2023-01-13T01:09:01.047Z,97.48
2023-01-13T01:11:30.746Z,97.38
2023-01-13T01:13:59.036Z,97.07
2023-01-13T01:16:27.824Z,97.25
2023-01-13T01:18:55.595Z,97.17
2023-01-13T01:21:24.689Z,97.23
2023-01-13T01:23:51.542Z,97.65
2023-01-13T01:26:20.947Z,97.43
2023-01-13T01:28:47.992Z,97.45
2023-01-13T01:31:20.286Z,97.54
2023-01-13T01:33:47.591Z,97.82
2023-01-13T01:36:16.285Z,98.15
2023-01-13T01:38:43.659Z,98.14
2023-01-13T01:41:16.251Z,98.10
2023-01-13T01:43:59.152Z,97.86
2023-01-13T01:46:40.694Z,97.82
2023-01-13T01:49:22.786Z,97.93
2023-01-13T01:51:56.565Z,98.00
2023-01-13T01:54:48.779Z,97.82
2023-01-13T01:57:23.364Z,97.48
2023-01-13T01:59:50.031Z,97.32
2023-01-13T02:02:17.371Z,97.14
2023-01-13T02:04:50.982Z,97.45
2023-01-13T02:07:20.736Z,97.10
2023-01-13T02:09:48.114Z,97.00
2023-01-13T02:12:31.873Z,97.02
2023-01-13T02:15:08.751Z,96.88
2023-01-13T02:17:45.284Z,96.77
2023-01-13T02:20:50.278Z,96.95
2023-01-13T02:24:07.072Z,95.91
2023-01-13T02:26:45.687Z,96.45
2023-01-13T02:29:44.973Z,95.47
2023-01-13T02:32:26.370Z,95.49
2023-01-13T02:35:34.384Z,95.19
2023-01-13T02:38:02.140Z,95.05
2023-01-13T02:40:48.514Z,94.90
2023-01-13T02:43:44.593Z,94.80
2023-01-13T02:46:17.688Z,94.55
2023-01-13T02:48:47.693Z,94.11
2023-01-13T02:51:18.269Z,93.84
2023-01-13T02:53:50.689Z,93.99
2023-01-13T02:56:18.051Z,93.77
2023-01-13T02:58:46.934Z,92.69
2023-01-13T03:01:13.716Z,92.86
2023-01-13T03:03:40.262Z,92.92
2023-01-13T03:06:40.948Z,92.92
2023-01-13T03:09:38.089Z,92.63
2023-01-13T03:12:15.730Z,92.14
2023-01-13T03:14:51.815Z,91.70
2023-01-13T03:17:21.090Z,91.85
2023-01-13T03:20:02.083Z,92.07
2023-01-13T03:22:33.699Z,91.57
2023-01-13T03:25:06.026Z,92.16
2023-01-13T03:27:41.168Z,92.39
2023-01-13T03:30:15.706Z,92.30
2023-01-13T03:32:47.206Z,92.26
2023-01-13T03:35:23.368Z,92.68
2023-01-13T03:38:03.362Z,92.54
2023-01-13T03:40:35.435Z,92.37
2023-01-13T03:43:25.552Z,92.35
2023-01-13T03:45:57.994Z,92.40
2023-01-13T03:48:27.815Z,91.94
2023-01-13T03:50:58.709Z,91.95
2023-01-13T03:53:37.943Z,91.83
2023-01-13T03:56:17.518Z,92.11
2023-01-13T03:58:47.954Z,92.01
2023-01-13T04:01:39.583Z,91.92
2023-01-13T04:04:08.628Z,91.78
2023-01-13T04:06:48.736Z,91.84
2023-01-13T04:09:22.171Z,91.91
2023-01-13T04:12:08.494Z,92.06
2023-01-13T04:14:35.994Z,92.04
2023-01-13T04:17:02.591Z,92.43
2023-01-13T04:19:29.209Z,92.15
2023-01-13T04:21:55.647Z,92.11
2023-01-13T04:24:22.107Z,91.64
2023-01-13T04:26:48.666Z,91.43
2023-01-13T04:29:15.844Z,92.20
2023-01-13T04:31:42.960Z,91.65
2023-01-13T04:34:12.963Z,91.31
2023-01-13T04:36:39.482Z,90.81
2023-01-13T04:39:06.127Z,90.82
2023-01-13T04:41:51.317Z,89.99
2023-01-13T04:44:17.789Z,89.80
2023-01-13T04:46:44.262Z,89.37
2023-01-13T04:49:10.772Z,89.14
2023-01-13T04:51:37.248Z,89.29
2023-01-13T04:54:04.106Z,89.63
2023-01-13T04:56:30.722Z,89.37
2023-01-13T04:58:57.318Z,89.61
2023-01-13T05:01:23.953Z,89.64
2023-01-13T05:03:50.565Z,88.98
2023-01-13T05:06:17.037Z,89.33
2023-01-13T05:08:43.484Z,88.97
2023-01-13T05:11:28.539Z,89.06
2023-01-13T05:14:13.648Z,88.79
2023-01-13T05:16:58.816Z,88.96
2023-01-13T05:19:25.268Z,89.50
2023-01-13T05:22:10.357Z,89.64
2023-01-13T05:24:55.484Z,89.40
2023-01-13T05:27:22.009Z,89.64
2023-01-13T05:29:48.451Z,90.06
2023-01-13T05:32:15.350Z,90.41
2023-01-13T05:34:41.790Z,90.44
2023-01-13T05:37:10.972Z,90.18
2023-01-13T05:39:55.994Z,90.29
2023-01-13T05:42:41.188Z,90.63
2023-01-13T05:45:08.309Z,90.74
2023-01-13T05:47:34.806Z,90.84
2023-01-13T05:50:01.392Z,91.23
2023-01-13T05:52:28.022Z,90.75
2023-01-13T05:54:54.451Z,90.98
2023-01-13T05:57:20.953Z,90.79
2023-01-13T05:59:47.425Z,90.70
2023-01-13T06:02:13.984Z,90.91
2023-01-13T06:04:40.489Z,91.05
2023-01-13T06:07:06.986Z,90.75
2023-01-13T06:09:33.544Z,90.54
2023-01-13T06:12:00.042Z,90.77
2023-01-13T06:14:39.928Z,90.56
2023-01-13T06:17:11.892Z,90.93
2023-01-13T06:19:38.802Z,90.41
2023-01-13T06:22:23.687Z,90.76
2023-01-13T06:24:53.547Z,90.50
2023-01-13T06:27:21.462Z,91.13
2023-01-13T06:29:48.118Z,90.03
2023-01-13T06:32:21.694Z,90.30
2023-01-13T06:34:55.380Z,89.46
2023-01-13T06:37:26.099Z,89.57
2023-01-13T06:39:58.136Z,89.40
2023-01-13T06:42:48.311Z,89.50
2023-01-13T06:45:14.909Z,89.03
2023-01-13T06:47:41.789Z,89.18
2023-01-13T06:50:09.145Z,89.11
2023-01-13T06:52:35.639Z,88.58
2023-01-13T06:55:02.958Z,88.57
2023-01-13T06:57:29.422Z,88.96
2023-01-13T06:59:56.151Z,88.81
2023-01-13T07:02:22.767Z,89.18
2023-01-13T07:04:49.355Z,89.08
2023-01-13T07:07:15.861Z,89.60
2023-01-13T07:09:42.283Z,89.65
2023-01-13T07:12:08.815Z,89.23
2023-01-13T07:14:54.981Z,89.56
2023-01-13T07:17:25.523Z,89.38
2023-01-13T07:19:53.081Z,89.78
2023-01-13T07:22:19.690Z,89.22
2023-01-13T07:24:46.223Z,89.06
2023-01-13T07:27:12.731Z,88.80
2023-01-13T07:29:39.685Z,88.49
2023-01-13T07:32:07.816Z,88.41
2023-01-13T07:34:34.338Z,88.17
2023-01-13T07:37:01.528Z,87.77
2023-01-13T07:39:28.257Z,87.57
2023-01-13T07:42:13.993Z,87.40
2023-01-13T07:44:40.838Z,87.92
2023-01-13T07:47:08.596Z,87.57
2023-01-13T07:49:35.097Z,86.74
2023-01-13T07:52:01.776Z,86.65
2023-01-13T07:54:39.356Z,85.76
2023-01-13T07:57:07.040Z,85.45
2023-01-13T07:59:33.679Z,85.69
2023-01-13T08:02:00.381Z,85.47
2023-01-13T08:04:27.048Z,84.83
2023-01-13T08:06:53.583Z,85.19
2023-01-13T08:09:20.067Z,84.64
2023-01-13T08:12:06.552Z,84.36
2023-01-13T08:14:37.925Z,83.74
2023-01-13T08:17:04.379Z,84.13
2023-01-13T08:19:30.860Z,83.94
2023-01-13T08:21:57.323Z,84.30
2023-01-13T08:24:23.767Z,84.63
2023-01-13T08:26:50.269Z,84.01
2023-01-13T08:29:16.857Z,83.78
2023-01-13T08:31:43.344Z,83.55
2023-01-13T08:34:09.817Z,83.82
2023-01-13T08:36:36.252Z,84.38
2023-01-13T08:39:03.135Z,84.79
2023-01-13T08:41:48.128Z,84.92
2023-01-13T08:44:14.682Z,86.13
2023-01-13T08:46:41.771Z,85.15
2023-01-13T08:49:08.283Z,85.82
2023-01-13T08:51:34.854Z,86.22
2023-01-13T08:54:02.129Z,86.81
2023-01-13T08:56:30.096Z,86.81
2023-01-13T08:59:00.806Z,87.57
2023-01-13T09:01:27.735Z,88.35
2023-01-13T09:03:54.791Z,88.04
2023-01-13T09:06:21.456Z,89.38
2023-01-13T09:08:47.925Z,88.94
2023-01-13T09:11:47.751Z,88.85
2023-01-13T09:14:21.468Z,88.70
2023-01-13T09:16:47.984Z,89.51
2023-01-13T09:19:14.760Z,89.46
2023-01-13T09:21:41.500Z,89.02
2023-01-13T09:24:08.563Z,89.31
2023-01-13T09:26:35.096Z,89.59
2023-01-13T09:29:01.592Z,89.90
2023-01-13T09:31:28.764Z,89.72
2023-01-13T09:34:13.867Z,90.17
2023-01-13T09:36:40.362Z,90.22
2023-01-13T09:39:07.068Z,90.19
2023-01-13T09:42:06.081Z,90.68
2023-01-13T09:44:57.640Z,90.13
2023-01-13T09:47:35.492Z,89.98
2023-01-13T09:50:22.049Z,89.94
2023-01-13T09:52:48.536Z,89.52
2023-01-13T09:55:18.258Z,89.47
2023-01-13T09:57:44.920Z,89.30
2023-01-13T10:00:12.869Z,89.07
2023-01-13T10:03:01.801Z,88.92
2023-01-13T10:05:37.135Z,88.80
2023-01-13T10:08:32.136Z,88.80
2023-01-13T10:11:25.211Z,88.23
2023-01-13T10:13:58.237Z,88.19
